sensor_id;sensor_type;location;lat;lon;timestamp;pressure;altitude;pressure_sealevel;temperature;humidity
77062;BME280;65989;51.686;5.138;2024-03-17T00:01:20;102426.13;;;5.36;98.29
77062;BME280;65989;51.686;5.138;2024-03-17T00:03:45;102425.50;;;5.34;98.40
77062;BME280;65989;51.686;5.138;2024-03-17T00:06:11;102419.44;;;5.33;98.54
77062;BME280;65989;51.686;5.138;2024-03-17T00:08:36;102417.97;;;5.31;98.87
77062;BME280;65989;51.686;5.138;2024-03-17T00:11:03;102421.63;;;5.30;98.81
77062;BME280;65989;51.686;5.138;2024-03-17T00:13:28;102406.84;;;5.29;99.01
77062;BME280;65989;51.686;5.138;2024-03-17T00:15:57;102405.56;;;5.25;98.61
77062;BME280;65989;51.686;5.138;2024-03-17T00:18:22;102404.72;;;5.24;98.51
77062;BME280;65989;51.686;5.138;2024-03-17T00:20:48;102408.19;;;5.25;98.64
77062;BME280;65989;51.686;5.138;2024-03-17T00:23:13;102400.19;;;5.18;98.37
77062;BME280;65989;51.686;5.138;2024-03-17T00:25:39;102400.19;;;5.18;98.33
77062;BME280;65989;51.686;5.138;2024-03-17T00:28:05;102404.97;;;5.14;98.16
77062;BME280;65989;51.686;5.138;2024-03-17T00:30:30;102403.53;;;5.12;98.11
77062;BME280;65989;51.686;5.138;2024-03-17T00:32:59;102405.34;;;5.11;98.20
77062;BME280;65989;51.686;5.138;2024-03-17T00:35:25;102416.03;;;5.10;98.10
77062;BME280;65989;51.686;5.138;2024-03-17T00:37:50;102411.94;;;5.07;98.03
77062;BME280;65989;51.686;5.138;2024-03-17T00:40:17;102408.66;;;5.05;97.68
77062;BME280;65989;51.686;5.138;2024-03-17T00:42:42;102407.03;;;5.04;97.42
77062;BME280;65989;51.686;5.138;2024-03-17T00:45:08;102411.28;;;5.05;97.37
77062;BME280;65989;51.686;5.138;2024-03-17T00:47:35;102398.97;;;5.05;97.46
77062;BME280;65989;51.686;5.138;2024-03-17T00:50:01;102391.91;;;5.06;97.36
77062;BME280;65989;51.686;5.138;2024-03-17T00:52:26;102395.19;;;5.08;97.61
77062;BME280;65989;51.686;5.138;2024-03-17T00:54:52;102391.56;;;5.09;97.79
77062;BME280;65989;51.686;5.138;2024-03-17T00:57:19;102393.53;;;5.07;97.80
77062;BME280;65989;51.686;5.138;2024-03-17T00:59:44;102383.22;;;5.05;97.86
77062;BME280;65989;51.686;5.138;2024-03-17T01:02:15;102385.00;;;5.05;97.85
77062;BME280;65989;51.686;5.138;2024-03-17T01:04:42;102387.84;;;5.03;97.65
77062;BME280;65989;51.686;5.138;2024-03-17T01:07:07;102385.38;;;5.02;97.54
77062;BME280;65989;51.686;5.138;2024-03-17T01:09:32;102382.09;;;5.00;97.49
77062;BME280;65989;51.686;5.138;2024-03-17T01:11:58;102380.66;;;4.97;97.37
77062;BME280;65989;51.686;5.138;2024-03-17T01:14:23;102371.97;;;4.97;97.52
77062;BME280;65989;51.686;5.138;2024-03-17T01:16:50;102364.25;;;4.95;97.56
77062;BME280;65989;51.686;5.138;2024-03-17T01:19:16;102363.44;;;4.95;97.90
77062;BME280;65989;51.686;5.138;2024-03-17T01:21:41;102362.81;;;4.92;97.66
77062;BME280;65989;51.686;5.138;2024-03-17T01:24:07;102356.91;;;4.90;97.54
77062;BME280;65989;51.686;5.138;2024-03-17T01:26:32;102352.81;;;4.88;97.43
77062;BME280;65989;51.686;5.138;2024-03-17T01:28:58;102346.28;;;4.84;97.77
77062;BME280;65989;51.686;5.138;2024-03-17T01:31:23;102346.47;;;4.82;98.05
77062;BME280;65989;51.686;5.138;2024-03-17T01:33:50;102344.84;;;4.81;97.91
77062;BME280;65989;51.686;5.138;2024-03-17T01:36:15;102348.09;;;4.83;98.18
77062;BME280;65989;51.686;5.138;2024-03-17T01:38:41;102346.63;;;4.81;98.44
77062;BME280;65989;51.686;5.138;2024-03-17T01:41:06;102345.19;;;4.78;98.51
77062;BME280;65989;51.686;5.138;2024-03-17T01:43:32;102343.00;;;4.82;98.59
77062;BME280;65989;51.686;5.138;2024-03-17T01:45:58;102348.41;;;4.88;99.07
77062;BME280;65989;51.686;5.138;2024-03-17T01:48:25;102334.91;;;4.91;99.00
77062;BME280;65989;51.686;5.138;2024-03-17T01:50:53;102334.16;;;4.98;99.01
77062;BME280;65989;51.686;5.138;2024-03-17T01:53:21;102331.84;;;5.03;98.86
77062;BME280;65989;51.686;5.138;2024-03-17T01:55:47;102337.84;;;5.12;98.98
77062;BME280;65989;51.686;5.138;2024-03-17T01:58:13;102334.66;;;5.16;98.88
77062;BME280;65989;51.686;5.138;2024-03-17T02:00:39;102333.75;;;5.24;98.97
77062;BME280;65989;51.686;5.138;2024-03-17T02:03:08;102328.78;;;5.29;98.71
77062;BME280;65989;51.686;5.138;2024-03-17T02:05:37;102330.06;;;5.33;98.44
77062;BME280;65989;51.686;5.138;2024-03-17T02:08:04;102320.00;;;5.37;98.15
77062;BME280;65989;51.686;5.138;2024-03-17T02:10:29;102320.25;;;5.42;98.15
77062;BME280;65989;51.686;5.138;2024-03-17T02:12:55;102317.47;;;5.44;98.09
77062;BME280;65989;51.686;5.138;2024-03-17T02:15:20;102319.09;;;5.45;97.75
77062;BME280;65989;51.686;5.138;2024-03-17T02:17:46;102317.91;;;5.47;98.14
77062;BME280;65989;51.686;5.138;2024-03-17T02:20:11;102309.38;;;5.45;97.84
77062;BME280;65989;51.686;5.138;2024-03-17T02:22:37;102307.41;;;5.47;97.76
77062;BME280;65989;51.686;5.138;2024-03-17T02:25:03;102309.66;;;5.50;98.28
77062;BME280;65989;51.686;5.138;2024-03-17T02:27:29;102315.72;;;5.51;98.14
77062;BME280;65989;51.686;5.138;2024-03-17T02:29:55;102310.75;;;5.56;98.45
77062;BME280;65989;51.686;5.138;2024-03-17T02:32:20;102311.72;;;5.55;98.15
77062;BME280;65989;51.686;5.138;2024-03-17T02:34:48;102308.56;;;5.60;98.19
77062;BME280;65989;51.686;5.138;2024-03-17T02:37:13;102308.38;;;5.61;98.15
77062;BME280;65989;51.686;5.138;2024-03-17T02:39:39;102303.94;;;5.62;98.26
77062;BME280;65989;51.686;5.138;2024-03-17T02:42:09;102300.13;;;5.64;98.69
77062;BME280;65989;51.686;5.138;2024-03-17T02:44:37;102302.81;;;5.71;98.87
77062;BME280;65989;51.686;5.138;2024-03-17T02:47:04;102302.81;;;5.71;98.67
77062;BME280;65989;51.686;5.138;2024-03-17T02:49:30;102310.91;;;5.70;98.63
77062;BME280;65989;51.686;5.138;2024-03-17T02:52:05;102305.47;;;5.71;98.57
77062;BME280;65989;51.686;5.138;2024-03-17T02:54:32;102299.19;;;5.72;98.73
77062;BME280;65989;51.686;5.138;2024-03-17T02:56:58;102294.56;;;5.74;99.22
77062;BME280;65989;51.686;5.138;2024-03-17T02:59:24;102300.03;;;5.73;98.91
77062;BME280;65989;51.686;5.138;2024-03-17T03:01:49;102300.03;;;5.73;99.22
77062;BME280;65989;51.686;5.138;2024-03-17T03:04:14;102294.56;;;5.74;99.35
77062;BME280;65989;51.686;5.138;2024-03-17T03:06:40;102298.41;;;5.72;99.45
77062;BME280;65989;51.686;5.138;2024-03-17T03:09:06;102290.16;;;5.75;99.39
77062;BME280;65989;51.686;5.138;2024-03-17T03:11:38;102284.88;;;5.75;99.55
77062;BME280;65989;51.686;5.138;2024-03-17T03:14:04;102285.69;;;5.75;99.94
77062;BME280;65989;51.686;5.138;2024-03-17T03:16:29;102283.06;;;5.75;99.71
77062;BME280;65989;51.686;5.138;2024-03-17T03:18:55;102291.13;;;5.74;99.78
77062;BME280;65989;51.686;5.138;2024-03-17T03:21:20;102287.31;;;5.76;99.91
77062;BME280;65989;51.686;5.138;2024-03-17T03:23:47;102288.31;;;5.75;100.00
77062;BME280;65989;51.686;5.138;2024-03-17T03:26:12;102283.69;;;5.77;100.00
77062;BME280;65989;51.686;5.138;2024-03-17T03:28:38;102279.41;;;5.76;100.00
77062;BME280;65989;51.686;5.138;2024-03-17T03:31:04;102263.66;;;5.76;100.00
77062;BME280;65989;51.686;5.138;2024-03-17T03:33:29;102265.28;;;5.77;100.00
77062;BME280;65989;51.686;5.138;2024-03-17T03:35:55;102260.84;;;5.78;100.00
77062;BME280;65989;51.686;5.138;2024-03-17T03:38:21;102259.22;;;5.77;100.00
77062;BME280;65989;51.686;5.138;2024-03-17T03:40:47;102254.94;;;5.76;100.00
77062;BME280;65989;51.686;5.138;2024-03-17T03:43:13;102259.00;;;5.78;100.00
77062;BME280;65989;51.686;5.138;2024-03-17T03:45:39;102259.22;;;5.77;100.00
77062;BME280;65989;51.686;5.138;2024-03-17T03:48:06;102244.22;;;5.77;100.00
77062;BME280;65989;51.686;5.138;2024-03-17T03:50:31;102239.53;;;5.73;100.00
77062;BME280;65989;51.686;5.138;2024-03-17T03:52:57;102231.00;;;5.71;100.00
77062;BME280;65989;51.686;5.138;2024-03-17T03:55:22;102233.56;;;5.64;100.00
77062;BME280;65989;51.686;5.138;2024-03-17T03:57:49;102229.06;;;5.58;100.00
77062;BME280;65989;51.686;5.138;2024-03-17T04:00:18;102238.69;;;5.50;100.00
77062;BME280;65989;51.686;5.138;2024-03-17T04:02:47;102229.09;;;5.43;100.00
77062;BME280;65989;51.686;5.138;2024-03-17T04:05:13;102222.94;;;5.35;100.00
77062;BME280;65989;51.686;5.138;2024-03-17T04:07:39;102226.47;;;5.28;100.00
77062;BME280;65989;51.686;5.138;2024-03-17T04:10:06;102221.94;;;5.21;100.00
77062;BME280;65989;51.686;5.138;2024-03-17T04:12:31;102219.84;;;5.17;100.00
77062;BME280;65989;51.686;5.138;2024-03-17T04:14:58;102227.28;;;5.13;100.00
77062;BME280;65989;51.686;5.138;2024-03-17T04:17:24;102219.78;;;5.10;100.00
77062;BME280;65989;51.686;5.138;2024-03-17T04:19:54;102226.22;;;5.07;100.00
77062;BME280;65989;51.686;5.138;2024-03-17T04:22:20;102227.56;;;5.03;100.00
77062;BME280;65989;51.686;5.138;2024-03-17T04:24:47;102220.06;;;5.00;100.00
77062;BME280;65989;51.686;5.138;2024-03-17T04:27:18;102214.34;;;4.97;100.00
77062;BME280;65989;51.686;5.138;2024-03-17T04:29:46;102216.72;;;4.91;100.00
77062;BME280;65989;51.686;5.138;2024-03-17T04:32:13;102218.84;;;4.88;100.00
77062;BME280;65989;51.686;5.138;2024-03-17T04:34:38;102210.53;;;4.84;100.00
77062;BME280;65989;51.686;5.138;2024-03-17T04:37:04;102218.41;;;4.84;100.00
77062;BME280;65989;51.686;5.138;2024-03-17T04:39:29;102211.88;;;4.80;100.00
77062;BME280;65989;51.686;5.138;2024-03-17T04:41:54;102217.13;;;4.80;100.00
77062;BME280;65989;51.686;5.138;2024-03-17T04:44:20;102218.13;;;4.79;100.00
77062;BME280;65989;51.686;5.138;2024-03-17T04:46:45;102212.44;;;4.75;100.00
77062;BME280;65989;51.686;5.138;2024-03-17T04:49:11;102218.03;;;4.72;100.00
77062;BME280;65989;51.686;5.138;2024-03-17T04:51:37;102219.84;;;4.72;100.00
77062;BME280;65989;51.686;5.138;2024-03-17T04:54:02;102212.31;;;4.69;100.00
77062;BME280;65989;51.686;5.138;2024-03-17T04:56:32;102204.91;;;4.72;100.00
77062;BME280;65989;51.686;5.138;2024-03-17T04:58:58;102207.34;;;4.74;100.00
77062;BME280;65989;51.686;5.138;2024-03-17T05:01:23;102203.56;;;4.76;100.00
77062;BME280;65989;51.686;5.138;2024-03-17T05:03:52;102201.38;;;4.80;100.00
77062;BME280;65989;51.686;5.138;2024-03-17T05:06:18;102201.19;;;4.82;100.00
77062;BME280;65989;51.686;5.138;2024-03-17T05:08:43;102201.47;;;4.87;100.00
77062;BME280;65989;51.686;5.138;2024-03-17T05:11:09;102206.56;;;4.88;100.00
77062;BME280;65989;51.686;5.138;2024-03-17T05:13:36;102201.94;;;4.90;100.00
77062;BME280;65989;51.686;5.138;2024-03-17T05:16:03;102201.31;;;4.88;100.00
77062;BME280;65989;51.686;5.138;2024-03-17T05:18:29;102204.94;;;4.87;100.00
77062;BME280;65989;51.686;5.138;2024-03-17T05:21:05;102210.53;;;4.84;100.00
77062;BME280;65989;51.686;5.138;2024-03-17T05:23:34;102199.75;;;4.79;100.00
77062;BME280;65989;51.686;5.138;2024-03-17T05:26:00;102209.25;;;4.80;100.00
77062;BME280;65989;51.686;5.138;2024-03-17T05:28:27;102199.75;;;4.79;100.00
77062;BME280;65989;51.686;5.138;2024-03-17T05:30:53;102191.25;;;4.77;100.00
77062;BME280;65989;51.686;5.138;2024-03-17T05:33:19;102184.81;;;4.80;100.00
77062;BME280;65989;51.686;5.138;2024-03-17T05:35:50;102191.88;;;4.79;100.00
77062;BME280;65989;51.686;5.138;2024-03-17T05:38:22;102181.00;;;4.82;100.00
77062;BME280;65989;51.686;5.138;2024-03-17T05:41:00;102180.47;;;4.87;100.00
77062;BME280;65989;51.686;5.138;2024-03-17T05:43:27;102187.34;;;4.88;100.00
77062;BME280;65989;51.686;5.138;2024-03-17T05:45:54;102189.97;;;4.88;100.00
77062;BME280;65989;51.686;5.138;2024-03-17T05:48:20;102191.44;;;4.90;100.00
77062;BME280;65989;51.686;5.138;2024-03-17T05:50:46;102196.50;;;4.92;100.00
77062;BME280;65989;51.686;5.138;2024-03-17T05:53:11;102201.03;;;4.98;100.00
77062;BME280;65989;51.686;5.138;2024-03-17T05:55:37;102200.81;;;5.00;100.00
77062;BME280;65989;51.686;5.138;2024-03-17T05:58:04;102207.56;;;5.02;100.00
77062;BME280;65989;51.686;5.138;2024-03-17T06:00:30;102207.56;;;5.02;100.00
77062;BME280;65989;51.686;5.138;2024-03-17T06:02:56;102202.28;;;5.02;100.00
77062;BME280;65989;51.686;5.138;2024-03-17T06:05:22;102206.34;;;5.05;100.00
77062;BME280;65989;51.686;5.138;2024-03-17T06:07:48;102203.38;;;5.08;100.00
77062;BME280;65989;51.686;5.138;2024-03-17T06:10:13;102210.72;;;5.13;100.00
77062;BME280;65989;51.686;5.138;2024-03-17T06:12:38;102223.84;;;5.28;100.00
77062;BME280;65989;51.686;5.138;2024-03-17T06:15:04;102213.47;;;5.41;100.00
77062;BME280;65989;51.686;5.138;2024-03-17T06:17:29;102213.28;;;5.58;100.00
77062;BME280;65989;51.686;5.138;2024-03-17T06:19:55;102206.16;;;5.73;100.00
77062;BME280;65989;51.686;5.138;2024-03-17T06:22:22;102211.81;;;5.92;100.00
77062;BME280;65989;51.686;5.138;2024-03-17T06:24:48;102206.06;;;6.03;100.00
77062;BME280;65989;51.686;5.138;2024-03-17T06:27:14;102217.09;;;6.13;100.00
77062;BME280;65989;51.686;5.138;2024-03-17T06:29:40;102218.59;;;6.23;100.00
77062;BME280;65989;51.686;5.138;2024-03-17T06:32:05;102209.50;;;6.25;100.00
77062;BME280;65989;51.686;5.138;2024-03-17T06:34:30;102207.50;;;6.27;100.00
77062;BME280;65989;51.686;5.138;2024-03-17T06:36:56;102203.22;;;6.26;100.00
77062;BME280;65989;51.686;5.138;2024-03-17T06:39:21;102208.91;;;6.30;100.00
77062;BME280;65989;51.686;5.138;2024-03-17T06:41:47;102191.72;;;6.34;100.00
77062;BME280;65989;51.686;5.138;2024-03-17T06:44:12;102197.25;;;6.39;100.00
77062;BME280;65989;51.686;5.138;2024-03-17T06:46:37;102187.34;;;6.41;100.00
77062;BME280;65989;51.686;5.138;2024-03-17T06:49:03;102190.22;;;6.47;100.00
77062;BME280;65989;51.686;5.138;2024-03-17T06:51:28;102190.25;;;6.53;100.00
77062;BME280;65989;51.686;5.138;2024-03-17T06:53:53;102190.31;;;6.60;100.00
77062;BME280;65989;51.686;5.138;2024-03-17T06:56:19;102192.78;;;6.68;100.00
77062;BME280;65989;51.686;5.138;2024-03-17T06:58:44;102195.69;;;6.80;100.00
77062;BME280;65989;51.686;5.138;2024-03-17T07:01:09;102186.84;;;6.95;99.86
77062;BME280;65989;51.686;5.138;2024-03-17T07:03:35;102184.50;;;7.13;99.07
77062;BME280;65989;51.686;5.138;2024-03-17T07:06:01;102181.13;;;7.26;98.44
77062;BME280;65989;51.686;5.138;2024-03-17T07:08:29;102179.75;;;7.44;97.08
77062;BME280;65989;51.686;5.138;2024-03-17T07:11:01;102192.16;;;7.50;96.30
77062;BME280;65989;51.686;5.138;2024-03-17T07:15:57;102172.47;;;7.53;95.67
77062;BME280;65989;51.686;5.138;2024-03-17T07:18:22;102179.97;;;7.49;95.29
77062;BME280;65989;51.686;5.138;2024-03-17T07:20:49;102181.38;;;7.45;95.58
77062;BME280;65989;51.686;5.138;2024-03-17T07:23:15;102183.59;;;7.41;95.48
77062;BME280;65989;51.686;5.138;2024-03-17T07:25:54;102178.50;;;7.40;95.89
77062;BME280;65989;51.686;5.138;2024-03-17T07:28:20;102178.50;;;7.40;96.38
77062;BME280;65989;51.686;5.138;2024-03-17T07:30:55;102179.13;;;7.42;96.23
77062;BME280;65989;51.686;5.138;2024-03-17T07:33:21;102167.97;;;7.40;95.69
77062;BME280;65989;51.686;5.138;2024-03-17T07:35:48;102178.34;;;7.48;96.31
77062;BME280;65989;51.686;5.138;2024-03-17T07:38:14;102179.19;;;7.55;95.76
77062;BME280;65989;51.686;5.138;2024-03-17T07:40:39;102174.31;;;7.66;95.58
77062;BME280;65989;51.686;5.138;2024-03-17T07:43:04;102174.75;;;7.76;94.83
77062;BME280;65989;51.686;5.138;2024-03-17T07:45:30;102167.88;;;7.88;94.63
77062;BME280;65989;51.686;5.138;2024-03-17T07:47:55;102157.09;;;7.97;93.88
77062;BME280;65989;51.686;5.138;2024-03-17T07:50:20;102165.22;;;8.09;93.92
77062;BME280;65989;51.686;5.138;2024-03-17T07:52:46;102161.16;;;8.19;92.86
77062;BME280;65989;51.686;5.138;2024-03-17T07:55:11;102165.00;;;8.30;92.70
77062;BME280;65989;51.686;5.138;2024-03-17T07:57:38;102169.47;;;8.36;92.26
77062;BME280;65989;51.686;5.138;2024-03-17T08:00:04;102171.09;;;8.51;91.36
77062;BME280;65989;51.686;5.138;2024-03-17T08:02:29;102177.78;;;8.60;91.11
77062;BME280;65989;51.686;5.138;2024-03-17T08:04:55;102168.63;;;8.70;90.88
77062;BME280;65989;51.686;5.138;2024-03-17T08:07:20;102179.59;;;8.73;90.03
77062;BME280;65989;51.686;5.138;2024-03-17T08:09:45;102177.38;;;8.77;89.97
77062;BME280;65989;51.686;5.138;2024-03-17T08:12:11;102184.47;;;8.76;89.74
77062;BME280;65989;51.686;5.138;2024-03-17T08:14:37;102184.69;;;8.75;89.97
77062;BME280;65989;51.686;5.138;2024-03-17T08:17:02;102185.47;;;8.75;89.76
77062;BME280;65989;51.686;5.138;2024-03-17T08:19:27;102183.84;;;8.74;89.21
77062;BME280;65989;51.686;5.138;2024-03-17T08:21:53;102183.84;;;8.74;89.15
77062;BME280;65989;51.686;5.138;2024-03-17T08:24:18;102183.84;;;8.74;89.45
77062;BME280;65989;51.686;5.138;2024-03-17T08:26:44;102184.47;;;8.76;89.61
77062;BME280;65989;51.686;5.138;2024-03-17T08:29:11;102178.16;;;8.77;89.53
77062;BME280;65989;51.686;5.138;2024-03-17T08:31:36;102174.88;;;8.82;89.43
77062;BME280;65989;51.686;5.138;2024-03-17T08:34:02;102180.97;;;8.89;89.34
77062;BME280;65989;51.686;5.138;2024-03-17T08:36:27;102176.66;;;8.95;89.21
77062;BME280;65989;51.686;5.138;2024-03-17T08:38:53;102161.81;;;9.01;88.91
77062;BME280;65989;51.686;5.138;2024-03-17T08:41:20;102164.44;;;9.07;88.58
77062;BME280;65989;51.686;5.138;2024-03-17T08:43:45;102172.75;;;9.18;88.59
77062;BME280;65989;51.686;5.138;2024-03-17T08:46:11;102165.97;;;9.29;88.49
77062;BME280;65989;51.686;5.138;2024-03-17T08:48:39;102170.59;;;9.33;87.75
77062;BME280;65989;51.686;5.138;2024-03-17T08:51:06;102167.53;;;9.43;87.52
77062;BME280;65989;51.686;5.138;2024-03-17T08:53:32;102163.22;;;9.49;87.38
77062;BME280;65989;51.686;5.138;2024-03-17T08:55:58;102169.88;;;9.58;86.79
77062;BME280;65989;51.686;5.138;2024-03-17T08:58:25;102163.88;;;9.69;87.01
77062;BME280;65989;51.686;5.138;2024-03-17T09:00:50;102163.84;;;9.76;86.65
77062;BME280;65989;51.686;5.138;2024-03-17T09:03:16;102162.72;;;9.91;85.67
77062;BME280;65989;51.686;5.138;2024-03-17T09:05:47;102153.69;;;9.98;85.34
77062;BME280;65989;51.686;5.138;2024-03-17T09:08:17;102160.34;;;10.08;84.48
77062;BME280;65989;51.686;5.138;2024-03-17T09:10:46;102155.63;;;10.10;83.65
77062;BME280;65989;51.686;5.138;2024-03-17T09:13:19;102156.84;;;10.14;83.69
77062;BME280;65989;51.686;5.138;2024-03-17T09:15:56;102155.53;;;10.23;83.27
77062;BME280;65989;51.686;5.138;2024-03-17T09:18:23;102154.88;;;10.28;83.14
77062;BME280;65989;51.686;5.138;2024-03-17T09:21:15;102145.94;;;10.48;83.27
77062;BME280;65989;51.686;5.138;2024-03-17T09:23:42;102152.13;;;10.60;82.03
77062;BME280;65989;51.686;5.138;2024-03-17T09:26:09;102138.94;;;10.72;81.24
77062;BME280;65989;51.686;5.138;2024-03-17T09:28:35;102137.63;;;10.81;80.70
77062;BME280;65989;51.686;5.138;2024-03-17T09:31:04;102135.38;;;10.97;80.14
77062;BME280;65989;51.686;5.138;2024-03-17T09:33:32;102134.19;;;11.11;79.64
77062;BME280;65989;51.686;5.138;2024-03-17T09:36:16;102129.75;;;11.24;79.34
77062;BME280;65989;51.686;5.138;2024-03-17T09:38:43;102130.94;;;11.40;78.46
77062;BME280;65989;51.686;5.138;2024-03-17T09:41:22;102130.75;;;11.65;79.70
77062;BME280;65989;51.686;5.138;2024-03-17T09:43:50;102136.91;;;11.89;79.33
77062;BME280;65989;51.686;5.138;2024-03-17T09:46:18;102124.09;;;11.98;76.99
77062;BME280;65989;51.686;5.138;2024-03-17T09:48:44;102119.63;;;12.10;76.45
77062;BME280;65989;51.686;5.138;2024-03-17T09:51:20;102130.03;;;12.24;76.19
77062;BME280;65989;51.686;5.138;2024-03-17T09:53:46;102130.22;;;12.34;75.22
77062;BME280;65989;51.686;5.138;2024-03-17T09:56:20;102129.84;;;12.54;74.82
77062;BME280;65989;51.686;5.138;2024-03-17T09:58:46;102128.66;;;12.74;74.45
77062;BME280;65989;51.686;5.138;2024-03-17T10:01:12;102128.22;;;12.94;72.68
77062;BME280;65989;51.686;5.138;2024-03-17T10:03:48;102124.34;;;13.14;73.57
77062;BME280;65989;51.686;5.138;2024-03-17T10:06:17;102127.63;;;13.33;72.96
77062;BME280;65989;51.686;5.138;2024-03-17T10:08:48;102128.84;;;13.42;72.26
77062;BME280;65989;51.686;5.138;2024-03-17T10:11:15;102125.81;;;13.51;71.23
77062;BME280;65989;51.686;5.138;2024-03-17T10:13:42;102120.56;;;13.73;71.31
77062;BME280;65989;51.686;5.138;2024-03-17T10:16:21;102124.03;;;13.91;70.13
77062;BME280;65989;51.686;5.138;2024-03-17T10:18:47;102119.81;;;13.95;69.23
77062;BME280;65989;51.686;5.138;2024-03-17T10:21:25;102115.31;;;13.95;69.95
77062;BME280;65989;51.686;5.138;2024-03-17T10:26:58;102111.69;;;13.84;68.57
77062;BME280;65989;51.686;5.138;2024-03-17T10:29:30;102104.47;;;13.85;69.33
77062;BME280;65989;51.686;5.138;2024-03-17T10:32:02;102108.28;;;13.89;69.78
77062;BME280;65989;51.686;5.138;2024-03-17T10:34:28;102104.09;;;13.93;69.77
77062;BME280;65989;51.686;5.138;2024-03-17T10:37:13;102103.41;;;14.03;70.04
77062;BME280;65989;51.686;5.138;2024-03-17T10:39:43;102100.53;;;14.04;70.04
77062;BME280;65989;51.686;5.138;2024-03-17T10:42:10;102098.41;;;14.07;69.48
77062;BME280;65989;51.686;5.138;2024-03-17T10:44:38;102100.25;;;14.06;69.45
77062;BME280;65989;51.686;5.138;2024-03-17T10:47:04;102095.97;;;14.05;69.03
77062;BME280;65989;51.686;5.138;2024-03-17T10:49:37;102100.19;;;14.01;68.94
77062;BME280;65989;51.686;5.138;2024-03-17T10:52:16;102094.06;;;14.00;69.43
77062;BME280;65989;51.686;5.138;2024-03-17T10:54:53;102094.56;;;13.97;69.99
77062;BME280;65989;51.686;5.138;2024-03-17T11:00:00;102100.84;;;13.91;69.14
77062;BME280;65989;51.686;5.138;2024-03-17T11:02:31;102106.66;;;13.88;69.67
77062;BME280;65989;51.686;5.138;2024-03-17T11:05:14;102103.34;;;13.98;69.47
77062;BME280;65989;51.686;5.138;2024-03-17T11:07:42;102099.47;;;14.06;68.95
77062;BME280;65989;51.686;5.138;2024-03-17T11:10:22;102099.84;;;14.14;69.00
77062;BME280;65989;51.686;5.138;2024-03-17T11:12:57;102094.41;;;14.26;69.09
77062;BME280;65989;51.686;5.138;2024-03-17T11:17:54;102095.03;;;14.33;68.02
77062;BME280;65989;51.686;5.138;2024-03-17T11:20:27;102090.41;;;14.29;68.79
77062;BME280;65989;51.686;5.138;2024-03-17T11:22:57;102091.03;;;14.36;69.11
77062;BME280;65989;51.686;5.138;2024-03-17T11:41:41;102076.09;;;14.13;70.78
77062;BME280;65989;51.686;5.138;2024-03-17T11:46:40;102077.19;;;13.95;71.17
77062;BME280;65989;51.686;5.138;2024-03-17T11:49:06;102075.75;;;13.87;70.93
77062;BME280;65989;51.686;5.138;2024-03-17T11:51:34;102060.44;;;13.77;71.58
77062;BME280;65989;51.686;5.138;2024-03-17T11:54:00;102058.16;;;13.69;71.77
77062;BME280;65989;51.686;5.138;2024-03-17T11:56:25;102071.19;;;13.65;72.67
77062;BME280;65989;51.686;5.138;2024-03-17T11:59:07;102064.53;;;13.68;73.22
77062;BME280;65989;51.686;5.138;2024-03-17T12:01:36;102063.66;;;13.62;73.16
77062;BME280;65989;51.686;5.138;2024-03-17T12:04:04;102062.94;;;13.67;73.07
77062;BME280;65989;51.686;5.138;2024-03-17T12:06:33;102049.47;;;13.73;73.03
77062;BME280;65989;51.686;5.138;2024-03-17T12:11:51;102040.91;;;13.94;72.57
77062;BME280;65989;51.686;5.138;2024-03-17T12:14:23;102031.66;;;13.96;72.09
77062;BME280;65989;51.686;5.138;2024-03-17T12:16:52;102041.97;;;13.93;71.49
77062;BME280;65989;51.686;5.138;2024-03-17T12:19:19;102037.69;;;13.92;71.89
77062;BME280;65989;51.686;5.138;2024-03-17T12:21:46;102032.38;;;13.92;72.23
77062;BME280;65989;51.686;5.138;2024-03-17T12:24:20;102031.88;;;13.95;72.30
77062;BME280;65989;51.686;5.138;2024-03-17T12:26:47;102027.09;;;13.97;72.44
77062;BME280;65989;51.686;5.138;2024-03-17T12:31:54;102024.78;;;14.00;73.02
77062;BME280;65989;51.686;5.138;2024-03-17T12:34:22;102022.97;;;14.06;73.32
77062;BME280;65989;51.686;5.138;2024-03-17T12:36:48;102020.88;;;14.08;72.57
77062;BME280;65989;51.686;5.138;2024-03-17T12:39:19;102018.19;;;14.08;72.34
77062;BME280;65989;51.686;5.138;2024-03-17T12:42:00;102018.69;;;14.05;71.74
77062;BME280;65989;51.686;5.138;2024-03-17T12:44:26;102014.34;;;13.99;72.36
77062;BME280;65989;51.686;5.138;2024-03-17T12:46:55;102011.38;;;13.95;72.81
77062;BME280;65989;51.686;5.138;2024-03-17T12:49:21;102008.66;;;13.90;72.20
77062;BME280;65989;51.686;5.138;2024-03-17T12:51:50;102001.88;;;13.82;72.01
77062;BME280;65989;51.686;5.138;2024-03-17T12:54:15;101999.22;;;13.82;72.37
77062;BME280;65989;51.686;5.138;2024-03-17T12:56:43;101995.06;;;13.92;72.31
77062;BME280;65989;51.686;5.138;2024-03-17T12:59:36;101997.63;;;14.03;72.31
77062;BME280;65989;51.686;5.138;2024-03-17T13:02:20;101994.56;;;14.17;72.42
77062;BME280;65989;51.686;5.138;2024-03-17T13:04:46;101997.06;;;14.24;71.44
77062;BME280;65989;51.686;5.138;2024-03-17T13:07:11;101989.94;;;14.29;71.42
77062;BME280;65989;51.686;5.138;2024-03-17T13:09:37;101985.50;;;14.40;71.13
77062;BME280;65989;51.686;5.138;2024-03-17T13:12:13;101978.69;;;14.49;70.91
77062;BME280;65989;51.686;5.138;2024-03-17T13:14:38;101972.03;;;14.52;70.38
77062;BME280;65989;51.686;5.138;2024-03-17T13:17:04;101967.28;;;14.59;70.24
77062;BME280;65989;51.686;5.138;2024-03-17T13:19:29;101960.63;;;14.57;69.34
77062;BME280;65989;51.686;5.138;2024-03-17T13:21:54;101960.69;;;14.67;70.41
77062;BME280;65989;51.686;5.138;2024-03-17T13:24:20;101954.94;;;14.75;69.60
77062;BME280;65989;51.686;5.138;2024-03-17T13:26:45;101952.41;;;14.96;69.44
77062;BME280;65989;51.686;5.138;2024-03-17T13:29:11;101953.66;;;15.16;68.21
77062;BME280;65989;51.686;5.138;2024-03-17T13:31:36;101948.16;;;15.33;67.50